Time;durP1;ratioP1;P1;durP2;ratioP2;P2;SDS_P1;SDS_P2;PMS_P1;PMS_P2;Temp;Humidity;BMP_temperature;BMP_pressure;BME280_temperature;BME280_humidity;BME280_pressure;Samples;Min_cycle;Max_cycle;Signal;HPM_P1;HPM_P2
2022/07/17 00:05:12;;;;;;;0.20;0.00;;;26.70;99.90;;;;;;25690041;23;20217;-70
2022/07/17 00:15:16;;;;;;;0.20;0.03;;;26.40;99.90;;;;;;25683909;23;20174;-70
2022/07/17 00:25:21;;;;;;;0.20;0.00;;;26.40;99.90;;;;;;25690210;23;20190;-71
2022/07/17 00:35:25;;;;;;;0.20;0.00;;;26.60;99.90;;;;;;25697826;23;20162;-70
2022/07/17 00:45:31;;;;;;;0.20;0.00;;;26.70;99.90;;;;;;25697662;23;20190;-70
2022/07/17 00:55:35;;;;;;;0.20;0.08;;;26.70;99.90;;;;;;25696998;23;20770;-69
2022/07/17 01:05:49;;;;;;;0.20;0.00;;;26.90;99.90;;;;;;25670873;23;20261;-71
2022/07/17 01:15:53;;;;;;;0.20;0.05;;;26.70;99.90;;;;;;25671139;23;20178;-72
2022/07/17 01:25:59;;;;;;;0.20;0.00;;;26.40;99.90;;;;;;25670818;23;20205;-71
2022/07/17 01:36:02;;;;;;;0.20;0.00;;;26.40;99.90;;;;;;25696795;23;20181;-72
2022/07/17 01:46:08;;;;;;;0.20;0.00;;;26.20;99.90;;;;;;25696622;23;20236;-71
2022/07/17 01:56:12;;;;;;;0.20;0.00;;;26.10;99.90;;;;;;25695161;23;20186;-71
2022/07/17 02:06:17;;;;;;;0.20;0.00;;;26.20;99.90;;;;;;25695788;23;20198;-71
2022/07/17 02:16:21;;;;;;;0.20;0.00;;;26.10;99.90;;;;;;25695473;23;20182;-71
2022/07/17 02:26:26;;;;;;;0.20;0.10;;;26.30;99.90;;;;;;25694928;23;20186;-71
2022/07/17 02:36:30;;;;;;;0.20;0.00;;;26.00;99.90;;;;;;25668863;23;20205;-71
2022/07/17 02:46:36;;;;;;;0.20;0.00;;;26.00;99.90;;;;;;25694624;23;20209;-70
2022/07/17 02:56:39;;;;;;;0.20;0.10;;;25.80;99.90;;;;;;25694363;23;20166;-70
2022/07/17 03:06:45;;;;;;;0.20;0.00;;;25.80;99.90;;;;;;25695529;23;20206;-71
2022/07/17 03:16:54;;;;;;;0.20;0.00;;;26.00;99.90;;;;;;25701358;23;20161;-71
2022/07/17 03:27:01;;;;;;;0.20;0.00;;;26.00;99.90;;;;;;25701158;23;20205;-72
2022/07/17 03:37:05;;;;;;;0.20;0.00;;;25.90;99.90;;;;;;25701427;23;20213;-72
2022/07/17 03:47:10;;;;;;;0.20;0.00;;;25.50;99.90;;;;;;25700884;23;20190;-70
2022/07/17 03:57:14;;;;;;;0.20;0.00;;;25.50;99.90;;;;;;25699817;23;20170;-71
2022/07/17 04:07:28;;;;;;;0.20;0.10;;;25.20;99.90;;;;;;25697656;23;20197;-72
2022/07/17 04:17:32;;;;;;;0.20;0.00;;;25.20;99.90;;;;;;25699412;23;20182;-71
2022/07/17 04:27:37;;;;;;;0.20;0.00;;;25.00;99.90;;;;;;25698912;23;20201;-71
2022/07/17 04:37:42;;;;;;;0.20;0.00;;;24.80;99.90;;;;;;25672726;23;20217;-71
2022/07/17 04:47:47;;;;;;;0.20;0.00;;;24.70;99.90;;;;;;25697814;23;20202;-70
2022/07/17 04:57:51;;;;;;;0.20;0.00;;;24.60;99.90;;;;;;25671547;23;20165;-70
2022/07/17 05:07:56;;;;;;;0.20;0.00;;;24.70;99.90;;;;;;25671618;23;20202;-72
2022/07/17 05:18:00;;;;;;;0.20;0.00;;;24.80;99.90;;;;;;25697654;23;20182;-70
2022/07/17 05:28:05;;;;;;;0.20;0.00;;;24.90;99.90;;;;;;25695168;23;20186;-72
2022/07/17 05:38:11;;;;;;;0.20;0.00;;;25.10;99.90;;;;;;25695416;23;20174;-72
2022/07/17 05:48:16;;;;;;;0.20;0.00;;;25.30;99.90;;;;;;25695030;23;20186;-71
2022/07/17 05:58:21;;;;;;;0.20;0.00;;;25.60;99.90;;;;;;25694696;23;20194;-72
2022/07/17 06:08:26;;;;;;;0.20;0.00;;;26.10;99.90;;;;;;25644833;23;20221;-72
2022/07/17 06:18:30;;;;;;;0.20;0.00;;;26.40;99.90;;;;;;25669223;23;20186;-71
2022/07/17 06:28:36;;;;;;;0.20;0.00;;;26.60;99.90;;;;;;25667024;23;20194;-73
2022/07/17 06:38:40;;;;;;;0.20;0.10;;;27.10;99.90;;;;;;25692955;23;20214;-72
2022/07/17 06:48:45;;;;;;;0.20;0.00;;;27.70;99.90;;;;;;25700632;23;20198;-71
2022/07/17 06:58:49;;;;;;;0.20;0.03;;;28.20;99.90;;;;;;25648210;23;20198;-71
2022/07/17 07:08:54;;;;;;;0.20;0.10;;;28.80;99.90;;;;;;25673176;23;20237;-71
2022/07/17 07:18:58;;;;;;;0.20;0.10;;;28.90;99.90;;;;;;25672846;23;20186;-70
2022/07/17 07:29:04;;;;;;;0.20;0.10;;;29.10;99.90;;;;;;25671708;23;20209;-70
2022/07/17 07:39:07;;;;;;;0.20;0.10;;;29.10;99.90;;;;;;25670867;23;20760;-71
2022/07/17 07:49:13;;;;;;;0.20;0.00;;;29.10;99.90;;;;;;25694886;23;20229;-71
2022/07/17 07:59:16;;;;;;;0.20;0.10;;;28.90;99.90;;;;;;25668235;23;20271;-71
2022/07/17 08:09:22;;;;;;;0.20;0.10;;;29.00;99.90;;;;;;25693638;23;20194;-69
2022/07/17 08:19:25;;;;;;;0.20;0.10;;;29.00;99.90;;;;;;25694493;23;20240;-69
2022/07/17 08:29:31;;;;;;;0.20;0.00;;;29.10;99.90;;;;;;25668861;23;20201;-71
2022/07/17 08:39:54;;;;;;;0.20;0.00;;;29.00;99.90;;;;;;25694269;23;20216;-71
2022/07/17 08:50:00;;;;;;;0.20;0.00;;;29.10;99.90;;;;;;25694753;23;20210;-70
2022/07/17 09:00:04;;;;;;;0.20;0.00;;;29.40;99.90;;;;;;25692920;23;20205;-70
2022/07/17 09:10:10;;;;;;;0.20;0.00;;;29.20;99.90;;;;;;25692494;23;20544;-69
2022/07/17 09:20:14;;;;;;;0.20;0.00;;;29.20;99.90;;;;;;25692808;23;20177;-72
2022/07/17 09:30:21;;;;;;;0.20;0.10;;;29.40;99.90;;;;;;25692117;23;20186;-70
2022/07/17 09:50:53;;;;;;;0.20;0.00;;;29.70;99.90;;;;;;25668656;23;20213;-71
2022/07/17 10:00:57;;;;;;;0.20;0.00;;;29.70;99.90;;;;;;25663945;23;20257;-72
2022/07/17 10:11:03;;;;;;;0.20;0.00;;;29.70;99.90;;;;;;25689399;23;20269;-71
2022/07/17 10:21:17;;;;;;;0.20;0.00;;;30.10;99.90;;;;;;25695246;23;20166;-71
2022/07/17 10:31:27;;;;;;;0.20;0.00;;;30.20;99.90;;;;;;25672648;23;20229;-70
2022/07/17 10:41:31;;;;;;;0.20;0.00;;;30.40;99.90;;;;;;25697345;23;20166;-70
2022/07/17 10:51:37;;;;;;;0.20;0.00;;;30.90;99.90;;;;;;25658594;23;20294;-71
2022/07/17 11:01:40;;;;;;;0.20;0.00;;;31.20;99.90;;;;;;25657747;23;20198;-71
2022/07/17 11:11:47;;;;;;;0.20;0.10;;;31.40;99.90;;;;;;25692092;23;20197;-70
2022/07/17 11:21:53;;;;;;;0.20;0.00;;;32.20;99.90;;;;;;25694973;23;20173;-68
2022/07/17 11:31:58;;;;;;;0.20;0.00;;;32.70;99.90;;;;;;25688466;23;20225;-70
2022/07/17 11:42:02;;;;;;;0.20;0.00;;;33.60;99.90;;;;;;25684012;23;20263;-69
2022/07/17 11:52:12;;;;;;;0.20;0.00;;;33.80;99.90;;;;;;25686095;23;20197;-70
2022/07/17 12:02:19;;;;;;;0.20;0.00;;;33.90;99.90;;;;;;25641510;23;20216;-69
2022/07/17 12:12:26;;;;;;;0.20;0.00;;;33.90;99.90;;;;;;25694120;23;20201;-68
2022/07/17 12:22:31;;;;;;;0.20;0.00;;;34.00;99.90;;;;;;25693696;23;20178;-67
2022/07/17 12:32:42;;;;;;;0.20;0.00;;;34.30;99.90;;;;;;25695228;23;20194;-69
2022/07/17 12:42:47;;;;;;;0.20;0.00;;;34.70;99.90;;;;;;25668431;23;20233;-69
2022/07/17 12:52:52;;;;;;;0.20;0.00;;;35.10;99.90;;;;;;25692822;23;20268;-70
2022/07/17 13:03:03;;;;;;;0.20;0.00;;;34.20;99.90;;;;;;25667285;23;20205;-70
2022/07/17 13:13:09;;;;;;;0.20;0.10;;;33.10;99.90;;;;;;25692528;23;20245;-68
2022/07/17 13:23:13;;;;;;;0.20;0.00;;;33.80;99.90;;;;;;25690642;23;20174;-69
2022/07/17 13:33:19;;;;;;;0.20;0.00;;;33.30;99.90;;;;;;25689803;23;20209;-69
2022/07/17 13:43:22;;;;;;;0.20;0.00;;;33.80;99.90;;;;;;25689968;23;20166;-69
2022/07/17 13:53:29;;;;;;;0.20;0.00;;;34.10;99.90;;;;;;25688264;23;20213;-68
2022/07/17 14:03:33;;;;;;;0.20;0.00;;;34.50;99.90;;;;;;25689163;23;20200;-69
2022/07/17 14:13:38;;;;;;;0.20;0.00;;;34.40;99.90;;;;;;25688195;23;20236;-68
2022/07/17 14:23:50;;;;;;;0.20;0.00;;;34.50;99.90;;;;;;25688762;23;20165;-69
2022/07/17 14:33:55;;;;;;;0.20;0.00;;;34.20;99.90;;;;;;25690120;23;20246;-66
2022/07/17 14:43:59;;;;;;;0.20;0.00;;;34.70;99.90;;;;;;25662815;23;20201;-68
2022/07/17 14:54:05;;;;;;;0.20;0.00;;;34.60;99.90;;;;;;25688256;23;20209;-68
2022/07/17 15:04:08;;;;;;;0.20;0.00;;;34.90;99.90;;;;;;25690965;23;20198;-69
2022/07/17 15:14:14;;;;;;;0.20;0.00;;;35.50;99.90;;;;;;25695072;23;20213;-68
2022/07/17 15:24:18;;;;;;;0.20;0.00;;;34.60;99.90;;;;;;25666824;23;20159;-69
2022/07/17 15:34:23;;;;;;;0.20;0.00;;;35.60;99.90;;;;;;25693552;23;20190;-67
2022/07/17 15:44:27;;;;;;;0.20;0.00;;;34.60;99.90;;;;;;25694301;23;20178;-68
2022/07/17 15:54:32;;;;;;;0.20;0.00;;;34.70;99.90;;;;;;25693305;23;20217;-67
2022/07/17 16:04:36;;;;;;;0.20;0.00;;;34.70;99.90;;;;;;25692678;23;20279;-68
2022/07/17 16:14:41;;;;;;;0.20;0.00;;;34.30;99.90;;;;;;25690981;23;20205;-68
2022/07/17 16:24:45;;;;;;;0.20;0.00;;;32.30;99.90;;;;;;25662804;23;20163;-68
2022/07/17 16:34:50;;;;;;;0.20;0.00;;;31.10;99.90;;;;;;25689071;23;20209;-66
2022/07/17 16:44:54;;;;;;;0.20;0.10;;;31.00;99.90;;;;;;25690161;23;20166;-67
2022/07/17 16:54:59;;;;;;;0.20;0.00;;;30.80;99.90;;;;;;25688133;23;20262;-67
2022/07/17 17:05:03;;;;;;;0.20;0.10;;;31.30;99.90;;;;;;25678212;23;20249;-68
2022/07/17 17:15:10;;;;;;;0.20;0.00;;;32.10;99.90;;;;;;25676521;23;20236;-68
2022/07/17 17:25:14;;;;;;;0.20;0.00;;;32.90;99.90;;;;;;25674177;23;20241;-68
2022/07/17 17:35:19;;;;;;;0.20;0.00;;;32.90;99.90;;;;;;25676940;23;20249;-69
2022/07/17 17:45:23;;;;;;;0.20;0.00;;;31.40;99.90;;;;;;25681403;23;20220;-68
2022/07/17 17:55:28;;;;;;;0.20;0.00;;;31.10;99.90;;;;;;25685138;23;20190;-69
2022/07/17 18:05:32;;;;;;;0.20;0.00;;;31.20;99.90;;;;;;25657383;23;20194;-68
2022/07/17 18:15:45;;;;;;;0.20;0.00;;;30.90;99.90;;;;;;25659744;23;20210;-67
2022/07/17 18:25:49;;;;;;;0.20;0.08;;;30.30;99.90;;;;;;25656795;23;20162;-68
2022/07/17 18:35:54;;;;;;;0.20;0.00;;;30.30;99.90;;;;;;25685387;23;20181;-67
2022/07/17 18:45:58;;;;;;;0.20;0.00;;;30.10;99.90;;;;;;25694653;23;20154;-68
2022/07/17 18:56:03;;;;;;;0.20;0.00;;;29.10;99.90;;;;;;25694047;23;20194;-68
2022/07/17 19:06:08;;;;;;;0.20;0.10;;;28.50;99.90;;;;;;25692226;23;20198;-68
2022/07/17 19:16:14;;;;;;;0.20;0.00;;;28.20;99.90;;;;;;25692752;23;20162;-67
2022/07/17 19:26:18;;;;;;;0.20;0.00;;;27.90;99.90;;;;;;25667573;23;20189;-68
2022/07/17 19:36:24;;;;;;;0.20;0.00;;;27.70;99.90;;;;;;25690679;23;20182;-67
2022/07/17 19:46:28;;;;;;;0.20;0.00;;;27.30;99.90;;;;;;25691035;23;20201;-68
2022/07/17 19:56:34;;;;;;;0.20;0.00;;;27.20;99.90;;;;;;25664127;23;20172;-68
2022/07/17 20:06:38;;;;;;;0.20;0.08;;;27.20;99.90;;;;;;25690268;23;20217;-69
2022/07/17 20:16:44;;;;;;;0.20;0.00;;;27.10;99.90;;;;;;25665250;23;20177;-68
2022/07/17 20:26:48;;;;;;;0.20;0.00;;;27.30;99.90;;;;;;25691468;23;20190;-68
2022/07/17 20:36:55;;;;;;;0.20;0.00;;;26.80;99.90;;;;;;25666524;23;20846;-70
2022/07/17 20:46:59;;;;;;;0.20;0.00;;;26.70;99.90;;;;;;25667511;23;20221;-70
2022/07/17 20:57:04;;;;;;;0.20;0.00;;;26.60;99.90;;;;;;25695961;23;20170;-70
2022/07/17 21:07:08;;;;;;;0.20;0.00;;;26.40;99.90;;;;;;25695077;23;20291;-70
2022/07/17 21:17:13;;;;;;;0.20;0.00;;;26.30;99.90;;;;;;25669842;23;20174;-71
2022/07/17 21:27:17;;;;;;;0.20;0.00;;;26.10;99.90;;;;;;25661265;23;20213;-70
2022/07/17 21:37:22;;;;;;;0.20;0.00;;;25.90;99.90;;;;;;25656717;23;20258;-71
2022/07/17 21:47:26;;;;;;;0.20;0.00;;;25.70;99.90;;;;;;25682729;23;20206;-71
2022/07/17 21:57:32;;;;;;;0.20;0.00;;;25.40;99.90;;;;;;25682129;23;20193;-71
2022/07/17 22:07:36;;;;;;;0.20;0.00;;;25.30;99.90;;;;;;25681798;23;20225;-69
2022/07/17 22:17:41;;;;;;;0.20;0.00;;;25.20;99.90;;;;;;25667448;23;20193;-71
2022/07/17 22:27:45;;;;;;;0.20;0.00;;;24.90;99.90;;;;;;25695866;23;20232;-71
2022/07/17 22:37:51;;;;;;;0.20;0.00;;;24.70;99.90;;;;;;25696595;23;20251;-71
2022/07/17 22:47:54;;;;;;;0.20;0.00;;;24.80;99.90;;;;;;25697732;23;20206;-70
2022/07/17 22:58:00;;;;;;;0.20;0.00;;;24.90;99.90;;;;;;25681162;23;20225;-70
2022/07/17 23:08:05;;;;;;;0.20;0.00;;;24.50;99.90;;;;;;25707371;23;20213;-70
2022/07/17 23:18:10;;;;;;;0.20;0.00;;;24.20;99.90;;;;;;25681242;23;20186;-70
2022/07/17 23:28:14;;;;;;;0.20;0.00;;;24.40;99.90;;;;;;25676327;23;20282;-71
2022/07/17 23:38:19;;;;;;;0.20;0.00;;;24.20;99.90;;;;;;25701151;23;20254;-70
2022/07/17 23:48:23;;;;;;;0.20;0.00;;;24.20;99.90;;;;;;25700722;23;20245;-70
2022/07/17 23:58:28;;;;;;;0.20;0.10;;;24.00;99.90;;;;;;25700355;23;20206;-72
